createdAt,value
2023-02-17T00:00:58.538Z,23.80
2023-02-17T00:04:00.394Z,22.43
2023-02-17T00:07:02.090Z,21.60
2023-02-17T00:10:03.962Z,17.63
2023-02-17T00:13:05.804Z,19.73
2023-02-17T00:16:11.699Z,17.63
2023-02-17T00:19:25.956Z,15.70
2023-02-17T00:22:27.868Z,19.23
2023-02-17T00:25:29.504Z,17.77
2023-02-17T00:28:31.186Z,19.17
2023-02-17T00:31:32.862Z,22.63
2023-02-17T00:34:34.535Z,20.83
2023-02-17T00:37:36.237Z,19.00
2023-02-17T00:40:38.978Z,22.80
2023-02-17T00:43:40.734Z,22.70
2023-02-17T00:46:42.389Z,14.37
2023-02-17T00:49:44.056Z,20.67
2023-02-17T00:52:45.703Z,18.60
2023-02-17T00:55:47.371Z,21.53
2023-02-17T00:58:49.040Z,19.13
2023-02-17T01:01:51.603Z,24.83
2023-02-17T01:04:53.573Z,18.87
2023-02-17T01:07:55.901Z,23.83
2023-02-17T01:10:57.469Z,14.87
2023-02-17T01:13:59.739Z,12.87
2023-02-17T01:17:01.527Z,18.07
2023-02-17T01:20:04.232Z,13.23
2023-02-17T01:23:06.069Z,15.13
2023-02-17T01:26:07.851Z,17.70
2023-02-17T01:29:09.866Z,15.47
2023-02-17T01:32:11.559Z,13.17
2023-02-17T01:35:13.189Z,17.40
2023-02-17T01:38:14.808Z,17.07
2023-02-17T01:41:17.715Z,15.67
2023-02-17T01:44:21.911Z,20.80
2023-02-17T01:47:26.268Z,13.07
2023-02-17T01:50:33.037Z,15.50
2023-02-17T01:53:46.148Z,13.17
2023-02-17T01:56:48.717Z,14.27
2023-02-17T01:59:50.732Z,12.37
2023-02-17T02:02:52.653Z,14.53
2023-02-17T02:05:55.074Z,8.70
2023-02-17T02:09:02.921Z,14.37
2023-02-17T02:12:16.383Z,17.57
2023-02-17T02:15:21.556Z,13.13
2023-02-17T02:18:31.833Z,13.83
2023-02-17T02:21:52.768Z,13.17
2023-02-17T02:25:03.771Z,12.53
2023-02-17T02:28:14.556Z,23.70
2023-02-17T02:31:36.916Z,25.13
2023-02-17T02:34:43.114Z,15.73
2023-02-17T02:37:47.713Z,26.77
2023-02-17T02:40:52.464Z,14.07
2023-02-17T02:43:54.176Z,17.20
2023-02-17T02:46:56.764Z,18.03
2023-02-17T02:49:58.557Z,9.93
2023-02-17T02:53:09.486Z,16.90
2023-02-17T02:56:21.098Z,13.43
2023-02-17T02:59:26.092Z,19.67
2023-02-17T03:02:44.674Z,20.43
2023-02-17T03:06:06.384Z,27.23
2023-02-17T03:09:13.375Z,26.10
2023-02-17T03:12:15.171Z,28.13
2023-02-17T03:15:23.230Z,18.10
2023-02-17T03:18:24.920Z,12.50
2023-02-17T03:21:29.699Z,14.50
2023-02-17T03:24:31.327Z,14.53
2023-02-17T03:27:32.948Z,14.63
2023-02-17T03:30:34.957Z,13.33
2023-02-17T03:33:36.633Z,16.23
2023-02-17T03:36:38.278Z,15.37
2023-02-17T03:39:39.841Z,13.70
2023-02-17T03:42:41.491Z,16.43
2023-02-17T03:45:43.123Z,17.50
2023-02-17T03:48:44.979Z,20.07
2023-02-17T03:51:46.550Z,16.43
2023-02-17T03:54:48.222Z,15.87
2023-02-17T03:57:49.902Z,25.63
2023-02-17T04:00:51.493Z,31.70
2023-02-17T04:03:53.086Z,20.30
2023-02-17T04:06:54.760Z,21.87
2023-02-17T04:09:56.498Z,21.60
2023-02-17T04:12:58.089Z,20.03
2023-02-17T04:16:01.489Z,18.87
2023-02-17T04:19:03.263Z,21.40
2023-02-17T04:22:08.809Z,26.23
2023-02-17T04:25:10.477Z,25.60
2023-02-17T04:28:12.795Z,19.73
2023-02-17T04:31:14.704Z,16.07
2023-02-17T04:34:16.418Z,19.07
2023-02-17T04:37:18.061Z,21.57
2023-02-17T04:40:19.933Z,23.20
2023-02-17T04:43:22.087Z,29.63
2023-02-17T04:46:23.656Z,25.67
2023-02-17T04:49:25.301Z,23.10
2023-02-17T04:52:26.964Z,19.73
2023-02-17T04:55:29.763Z,21.93
2023-02-17T04:58:31.468Z,22.77
2023-02-17T05:01:33.076Z,23.30
2023-02-17T05:04:34.945Z,23.87
2023-02-17T05:07:36.527Z,15.40
2023-02-17T05:10:38.187Z,23.57
2023-02-17T05:13:39.943Z,22.87
2023-02-17T05:16:41.639Z,29.97
2023-02-17T05:19:43.341Z,31.73
2023-02-17T05:22:44.974Z,35.40
2023-02-17T05:25:46.678Z,42.10
2023-02-17T05:28:48.431Z,39.77
2023-02-17T05:31:50.099Z,36.20
2023-02-17T05:34:51.794Z,30.40
2023-02-17T05:37:53.392Z,16.20
2023-02-17T05:40:55.039Z,18.83
2023-02-17T05:43:56.712Z,14.00
2023-02-17T05:46:58.339Z,16.43
2023-02-17T05:49:59.966Z,17.60
2023-02-17T05:53:01.633Z,15.63
2023-02-17T05:56:03.418Z,13.53
2023-02-17T05:59:05.068Z,12.83
2023-02-17T06:02:07.908Z,29.07
2023-02-17T06:05:09.781Z,26.20
2023-02-17T06:08:11.443Z,23.70
2023-02-17T06:11:13.082Z,21.83
2023-02-17T06:14:14.898Z,16.93
2023-02-17T06:17:16.472Z,21.60
2023-02-17T06:20:18.210Z,28.03
2023-02-17T06:23:19.803Z,27.53
2023-02-17T06:26:21.857Z,38.17
2023-02-17T06:29:23.503Z,18.43
2023-02-17T06:32:25.339Z,39.13
2023-02-17T06:35:27.033Z,42.93
2023-02-17T06:38:28.746Z,49.30
2023-02-17T06:41:30.389Z,73.57
2023-02-17T06:44:31.995Z,51.23
2023-02-17T06:47:34.101Z,114.27
2023-02-17T06:50:35.924Z,89.27
2023-02-17T06:53:37.626Z,35.90
2023-02-17T06:56:39.274Z,42.47
2023-02-17T06:59:40.884Z,65.80
2023-02-17T07:02:42.664Z,52.27
2023-02-17T07:05:44.484Z,44.47
2023-02-17T07:08:46.164Z,34.73
2023-02-17T07:11:48.364Z,35.20
2023-02-17T07:14:50.082Z,30.23
2023-02-17T07:17:51.878Z,29.60
2023-02-17T07:20:53.583Z,45.03
2023-02-17T07:23:55.327Z,45.13
2023-02-17T07:26:56.962Z,49.47
2023-02-17T07:29:58.806Z,54.03
2023-02-17T07:33:00.422Z,71.53
2023-02-17T07:36:12.435Z,59.70
2023-02-17T07:39:14.119Z,52.67
2023-02-17T07:42:15.927Z,43.33
2023-02-17T07:45:17.646Z,39.63
2023-02-17T07:48:19.295Z,37.50
2023-02-17T07:51:21.691Z,34.90
2023-02-17T07:54:23.291Z,107.97
2023-02-17T07:57:25.074Z,146.97
2023-02-17T08:00:26.786Z,80.53
2023-02-17T08:03:28.457Z,80.97
2023-02-17T08:06:30.098Z,117.80
2023-02-17T08:10:10.109Z,86.20
2023-02-17T08:13:20.687Z,53.30
2023-02-17T08:16:22.408Z,98.30
2023-02-17T08:19:24.162Z,82.30
2023-02-17T08:22:25.801Z,93.10
2023-02-17T08:25:27.451Z,122.37
2023-02-17T08:28:29.094Z,146.90
2023-02-17T08:31:32.518Z,243.87
2023-02-17T08:34:34.239Z,114.67
2023-02-17T08:37:35.947Z,34.50
2023-02-17T08:40:37.568Z,14.57
2023-02-17T08:43:39.329Z,27.40
2023-02-17T08:46:41.497Z,36.77
2023-02-17T08:49:43.281Z,17.67
2023-02-17T08:52:45.012Z,24.43
2023-02-17T08:55:49.504Z,43.57
2023-02-17T08:58:51.698Z,43.80
2023-02-17T09:01:53.410Z,68.03
2023-02-17T09:04:55.210Z,31.93
2023-02-17T09:07:57.012Z,31.73
2023-02-17T09:10:58.771Z,12.37
2023-02-17T09:14:00.359Z,24.70
2023-02-17T09:17:02.012Z,19.60
2023-02-17T09:20:05.067Z,21.10
2023-02-17T09:23:11.002Z,20.70
2023-02-17T09:26:13.697Z,26.60
2023-02-17T09:29:15.383Z,16.30
2023-02-17T09:32:17.118Z,13.70
2023-02-17T09:35:19.314Z,14.97
2023-02-17T09:38:21.017Z,22.20
2023-02-17T09:41:34.932Z,18.70
2023-02-17T09:44:42.814Z,34.07
2023-02-17T09:47:46.385Z,19.00
2023-02-17T09:51:02.689Z,24.93
2023-02-17T09:54:07.505Z,16.87
2023-02-17T09:57:12.917Z,14.50
2023-02-17T10:00:17.080Z,18.60
2023-02-17T10:03:24.882Z,12.20
2023-02-17T10:06:26.581Z,12.17
2023-02-17T10:09:28.257Z,11.60
2023-02-17T10:12:37.438Z,18.33
2023-02-17T10:15:40.688Z,10.37
2023-02-17T10:18:48.775Z,15.97
2023-02-17T10:22:11.405Z,11.10
2023-02-17T10:25:22.264Z,17.33
2023-02-17T10:28:37.379Z,14.57
2023-02-17T10:31:41.981Z,18.83
2023-02-17T10:34:51.145Z,19.93
2023-02-17T10:38:03.435Z,13.97
2023-02-17T10:41:06.695Z,12.90
2023-02-17T10:44:11.926Z,15.77
2023-02-17T10:47:15.417Z,19.00
2023-02-17T10:50:21.620Z,7.83
2023-02-17T10:53:25.934Z,63.73
2023-02-17T10:56:32.630Z,20.67
2023-02-17T10:59:37.826Z,16.40
2023-02-17T11:02:44.302Z,7.10
2023-02-17T11:05:52.303Z,12.73
2023-02-17T11:09:05.137Z,12.73
2023-02-17T11:12:12.291Z,8.40
2023-02-17T11:15:18.745Z,17.13
2023-02-17T11:18:21.719Z,17.40
2023-02-17T11:21:23.698Z,10.43
2023-02-17T11:24:26.026Z,6.83
2023-02-17T11:27:27.699Z,9.80
2023-02-17T11:30:30.357Z,8.70
2023-02-17T11:33:33.694Z,16.17
2023-02-17T11:36:35.329Z,12.33
2023-02-17T11:39:40.991Z,6.80
2023-02-17T11:42:42.681Z,10.93
2023-02-17T11:45:48.927Z,8.97
2023-02-17T11:48:50.553Z,8.67
2023-02-17T11:52:07.142Z,15.27
2023-02-17T11:55:24.142Z,8.10
2023-02-17T11:58:31.831Z,8.07
2023-02-17T12:01:45.734Z,11.90
2023-02-17T12:05:06.003Z,13.00
2023-02-17T12:08:22.993Z,7.53
2023-02-17T12:11:24.671Z,8.30
2023-02-17T12:14:40.822Z,15.27
2023-02-17T12:17:42.978Z,7.53
2023-02-17T12:21:03.186Z,12.07
2023-02-17T12:24:19.406Z,10.13
2023-02-17T12:27:27.059Z,8.23
2023-02-17T12:30:47.546Z,9.60
2023-02-17T12:33:49.271Z,14.50
2023-02-17T12:36:51.407Z,12.53
2023-02-17T12:40:02.113Z,7.80
2023-02-17T12:43:25.569Z,8.53
2023-02-17T12:46:41.205Z,8.53
2023-02-17T12:49:42.824Z,8.90
2023-02-17T12:52:46.298Z,7.97
2023-02-17T12:55:52.221Z,8.90
2023-02-17T12:59:10.473Z,7.00
2023-02-17T13:02:17.006Z,6.50
2023-02-17T13:05:22.254Z,9.00
2023-02-17T13:08:27.545Z,8.23
2023-02-17T13:11:34.053Z,8.77
2023-02-17T13:14:40.159Z,10.97
2023-02-17T13:17:52.963Z,10.40
2023-02-17T13:20:57.359Z,8.07
2023-02-17T13:24:16.563Z,8.83
2023-02-17T13:27:31.378Z,10.37
2023-02-17T13:30:41.953Z,16.07
2023-02-17T13:33:48.554Z,9.57
2023-02-17T13:36:50.535Z,7.43
2023-02-17T13:39:52.176Z,9.30
2023-02-17T13:42:54.832Z,14.03
2023-02-17T13:46:00.916Z,19.57
2023-02-17T13:49:04.446Z,14.40
2023-02-17T13:52:10.609Z,54.47
2023-02-17T13:55:18.884Z,17.37
2023-02-17T13:58:31.312Z,10.40
2023-02-17T14:01:36.289Z,15.30
2023-02-17T14:04:38.289Z,11.37
2023-02-17T14:07:39.904Z,19.73
2023-02-17T14:10:41.539Z,22.13
2023-02-17T14:13:45.578Z,30.53
2023-02-17T14:16:56.880Z,18.30
2023-02-17T14:19:58.632Z,12.73
2023-02-17T14:23:05.216Z,13.83
2023-02-17T14:26:14.914Z,11.77
2023-02-17T14:29:16.770Z,11.67
2023-02-17T14:32:27.574Z,12.00
2023-02-17T14:35:29.268Z,13.47
2023-02-17T14:38:32.333Z,14.17
2023-02-17T14:41:34.007Z,13.27
2023-02-17T14:44:35.680Z,14.47
2023-02-17T14:47:37.229Z,11.73
2023-02-17T14:50:45.022Z,14.40
2023-02-17T14:53:47.092Z,20.57
2023-02-17T14:56:54.612Z,19.20
2023-02-17T14:59:57.843Z,22.20
2023-02-17T15:02:59.496Z,14.10
2023-02-17T15:06:01.317Z,11.13
2023-02-17T15:09:02.984Z,18.13
2023-02-17T15:12:09.837Z,16.70
2023-02-17T15:15:15.408Z,19.67
2023-02-17T15:18:18.317Z,15.63
2023-02-17T15:21:23.028Z,24.97
2023-02-17T15:24:29.842Z,20.53
2023-02-17T15:27:32.867Z,26.93
2023-02-17T15:30:35.643Z,27.07
2023-02-17T15:33:37.296Z,21.27
2023-02-17T15:36:38.861Z,32.27
2023-02-17T15:39:40.580Z,29.43
2023-02-17T15:42:42.850Z,38.67
2023-02-17T15:45:44.478Z,28.27
2023-02-17T15:48:48.735Z,36.87
2023-02-17T15:51:50.444Z,33.40
2023-02-17T15:54:53.902Z,32.90
2023-02-17T15:58:01.981Z,36.33
2023-02-17T16:01:04.242Z,40.87
2023-02-17T16:04:06.746Z,45.43
2023-02-17T16:07:08.350Z,49.27
2023-02-17T16:10:11.312Z,47.20
2023-02-17T16:13:15.706Z,47.77
2023-02-17T16:16:18.893Z,52.17
2023-02-17T16:19:20.522Z,34.17
2023-02-17T16:22:22.159Z,90.80
2023-02-17T16:25:23.841Z,72.13
2023-02-17T16:28:25.472Z,111.03
2023-02-17T16:31:27.293Z,157.93
2023-02-17T16:34:32.404Z,158.07
2023-02-17T16:37:34.153Z,111.23
2023-02-17T16:40:36.990Z,88.83
2023-02-17T16:43:38.624Z,93.83
2023-02-17T16:46:44.923Z,95.60
2023-02-17T16:49:47.361Z,92.70
2023-02-17T16:52:48.951Z,82.00
2023-02-17T16:55:52.017Z,75.43
2023-02-17T16:58:53.706Z,82.50
2023-02-17T17:01:55.320Z,81.73
2023-02-17T17:04:56.891Z,83.37
2023-02-17T17:07:58.596Z,81.07
2023-02-17T17:11:00.262Z,89.47
2023-02-17T17:14:01.865Z,58.83
2023-02-17T17:17:03.477Z,66.27
2023-02-17T17:20:05.375Z,43.47
2023-02-17T17:23:08.517Z,65.60
2023-02-17T17:26:14.602Z,67.57
2023-02-17T17:29:17.332Z,61.23
2023-02-17T17:32:19.119Z,49.43
2023-02-17T17:35:20.830Z,32.40
2023-02-17T17:38:22.536Z,41.60
2023-02-17T17:41:27.922Z,47.67
2023-02-17T17:44:29.673Z,38.17
2023-02-17T17:47:32.060Z,39.30
2023-02-17T17:50:33.712Z,36.87
2023-02-17T17:53:35.399Z,38.20
2023-02-17T17:56:39.296Z,41.90
2023-02-17T17:59:40.954Z,40.10
2023-02-17T18:02:42.747Z,41.67
2023-02-17T18:05:47.750Z,29.63
2023-02-17T18:08:50.388Z,32.13
2023-02-17T18:11:52.885Z,39.73
2023-02-17T18:14:54.746Z,32.70
2023-02-17T18:17:56.583Z,46.93
2023-02-17T18:20:58.172Z,38.27
2023-02-17T18:23:59.773Z,27.80
2023-02-17T18:27:01.352Z,28.00
2023-02-17T18:30:03.127Z,32.47
2023-02-17T18:33:04.916Z,33.10
2023-02-17T18:36:10.927Z,36.57
2023-02-17T18:39:12.546Z,41.07
2023-02-17T18:42:14.386Z,33.47
2023-02-17T18:45:16.832Z,37.23
2023-02-17T18:48:18.592Z,43.50
2023-02-17T18:51:23.290Z,60.07
2023-02-17T18:54:25.002Z,45.17
2023-02-17T18:57:26.578Z,55.10
2023-02-17T19:00:28.410Z,42.80
2023-02-17T19:03:30.091Z,33.20
2023-02-17T19:06:34.537Z,42.20
2023-02-17T19:09:37.751Z,34.83
2023-02-17T19:12:39.372Z,35.53
2023-02-17T19:15:40.980Z,43.87
2023-02-17T19:18:43.108Z,39.73
2023-02-17T19:21:44.760Z,47.67
2023-02-17T19:24:49.988Z,42.47
2023-02-17T19:27:51.554Z,30.90
2023-02-17T19:30:57.388Z,46.60
2023-02-17T19:33:58.972Z,33.17
2023-02-17T19:37:00.673Z,32.87
2023-02-17T19:40:02.962Z,33.20
2023-02-17T19:43:04.539Z,45.37
2023-02-17T19:46:06.729Z,47.07
2023-02-17T19:49:08.659Z,43.57
2023-02-17T19:52:10.728Z,54.77
2023-02-17T19:55:12.666Z,52.70
2023-02-17T19:58:14.241Z,55.27
2023-02-17T20:01:17.381Z,48.27
2023-02-17T20:04:20.252Z,38.23
2023-02-17T20:07:21.926Z,28.53
2023-02-17T20:10:23.661Z,26.60
2023-02-17T20:13:27.172Z,37.20
2023-02-17T20:16:30.584Z,34.53
2023-02-17T20:19:32.237Z,49.67
2023-02-17T20:22:33.829Z,44.20
2023-02-17T20:25:39.549Z,40.20
2023-02-17T20:28:41.182Z,37.53
2023-02-17T20:31:42.891Z,51.97
2023-02-17T20:34:44.574Z,48.27
2023-02-17T20:37:46.229Z,62.83
2023-02-17T20:40:47.903Z,69.67
2023-02-17T20:43:49.908Z,54.33
2023-02-17T20:46:51.971Z,62.23
2023-02-17T20:49:53.679Z,58.87
2023-02-17T20:52:55.262Z,65.13
2023-02-17T20:55:57.119Z,58.30
2023-02-17T20:58:58.722Z,60.23
2023-02-17T21:02:00.400Z,51.20
2023-02-17T21:05:02.042Z,52.13
2023-02-17T21:08:03.804Z,46.07
2023-02-17T21:11:05.488Z,39.80
2023-02-17T21:14:07.201Z,35.93
2023-02-17T21:17:09.212Z,27.40
2023-02-17T21:20:16.908Z,23.77
2023-02-17T21:23:18.945Z,33.93
2023-02-17T21:26:20.925Z,29.20
2023-02-17T21:29:22.845Z,34.97
2023-02-17T21:32:24.984Z,33.10
2023-02-17T21:35:26.581Z,30.13
2023-02-17T21:38:28.206Z,30.00
2023-02-17T21:41:32.113Z,28.03
2023-02-17T21:44:51.923Z,27.90
2023-02-17T21:47:53.563Z,28.23
2023-02-17T21:51:03.105Z,40.07
2023-02-17T21:54:05.389Z,48.67
2023-02-17T21:57:07.008Z,42.67
2023-02-17T22:00:09.386Z,65.67
2023-02-17T22:03:13.881Z,46.47
2023-02-17T22:06:15.596Z,38.40
2023-02-17T22:09:18.126Z,41.27
2023-02-17T22:12:19.843Z,48.73
2023-02-17T22:15:21.534Z,46.27
2023-02-17T22:18:23.098Z,39.57
2023-02-17T22:21:24.805Z,51.57
2023-02-17T22:24:27.913Z,53.73
2023-02-17T22:27:29.603Z,51.10
2023-02-17T22:30:31.285Z,42.23
2023-02-17T22:33:33.538Z,45.93
2023-02-17T22:36:35.903Z,48.23
2023-02-17T22:39:37.515Z,46.60
2023-02-17T22:42:39.135Z,48.70
2023-02-17T22:45:41.433Z,56.77
2023-02-17T22:48:43.812Z,41.23
2023-02-17T22:51:45.415Z,40.37
2023-02-17T22:54:46.964Z,28.70
2023-02-17T22:57:48.574Z,35.60
2023-02-17T23:00:50.264Z,33.00
2023-02-17T23:03:54.383Z,41.63
2023-02-17T23:06:56.604Z,37.27
2023-02-17T23:09:58.219Z,42.60
2023-02-17T23:12:59.945Z,43.87
2023-02-17T23:16:01.738Z,37.70
2023-02-17T23:19:10.383Z,28.90
2023-02-17T23:22:15.944Z,31.43
2023-02-17T23:25:17.608Z,34.43
2023-02-17T23:28:20.535Z,29.80
2023-02-17T23:31:22.272Z,24.90
2023-02-17T23:34:24.205Z,30.10
2023-02-17T23:37:25.998Z,25.97
2023-02-17T23:40:27.709Z,30.63
2023-02-17T23:43:29.393Z,36.60
2023-02-17T23:46:31.044Z,43.33
2023-02-17T23:49:32.680Z,35.57
2023-02-17T23:52:34.466Z,35.13
2023-02-17T23:55:36.156Z,36.73
2023-02-17T23:58:37.833Z,38.83
